Terminal Aerodrome Forecast
Issued by NWS

Home | Current Version | Previous Version | Text Only | Print | Product List | Glossary On
Versions: 1 2 3 4 5 6 7 8 9 10 11 12 13 14 15
000
FTUS46 KMTR 230500
TAFSNS
TAF
KSNS 230534Z 2306/2406 31005KT P6SM SKC
     FM231100 VRB03KT P6SM FEW007
      TEMPO 2312/2316 BKN007
     FM231600 VRB03KT P6SM SKC
     FM232100 28012KT P6SM SKC
     FM240400 29006KT P6SM SKC=

USA.gov is the U.S. government's official web portal to all federal, state and local government web resources and services.